Terminal Aerodrome Forecast
Issued by NWS

Home | Current Version | Previous Version | Text Only | Print | Product List | Glossary On
Versions: 1 2 3 4 5 6 7 8 9 10 11 12 13 14 15 16 17 18 19
000
FTUS46 KLOX 302341
TAFSBP
TAF
KSBP 302341Z 3100/3124 31010KT P6SM BKN120
     FM310500 VRB04KT P6SM SCT010 SCT080
     FM311900 31010KT P6SM SCT010 SCT080=

USA.gov is the U.S. government's official web portal to all federal, state and local government web resources and services.